ETD31 OMAA-LFPG
Flight info
| Callsign | ETD31 |
|---|---|
| Flight time | N/A |
| Altitude | 34000 |
| Route | MEKRI P899 TOVOX/N0487F380 DCT ULIKA M430 KSA T503 TAMRO/N0487F400 T503 OVANO L768 FIRAS R655 LEBOR UR655 BALMA L620 VESAR UN135 IMR UN127 RIKSO DCT STINO DCT TALAS DCT PEP DCT ENFAR DCT BAXON DCT TZO DCT PUNSA/N0455F380 DCT UNKIR DCT GIVRI DCT TINIL |
| Aircraft | A388/J-SADE2E3FGHIJ3J4J5M1RWXY/LB1D1 |
Departure
| Time | N/A |
|---|---|
| Airport | Zayed International Airport (OMAA) |
Arrival
| Time | 2026-05-03 21:46 |
|---|---|
| Airport | Charles de Gaulle International Airport (LFPG) |
| Time | Latitude | Longitude | Altitude | Speed | Heading |
|---|---|---|---|---|---|
| 2026-05-03 20:15 | 43.99044 | 14.72950 | 38102 ft | 444 kts | 298° |
| 2026-05-03 20:15 | 44.01705 | 14.65207 | 38091 ft | 444 kts | 297° |
| 2026-05-03 20:16 | 44.04352 | 14.57528 | 38078 ft | 443 kts | 297° |
| 2026-05-03 20:16 | 44.06993 | 14.49785 | 38095 ft | 444 kts | 297° |
| 2026-05-03 20:17 | 44.09639 | 14.42007 | 38100 ft | 445 kts | 297° |
| 2026-05-03 20:17 | 44.12283 | 14.34208 | 38107 ft | 445 kts | 297° |
| 2026-05-03 20:18 | 44.14928 | 14.26423 | 38112 ft | 445 kts | 297° |
| 2026-05-03 20:18 | 44.17126 | 14.19956 | 38112 ft | 444 kts | 297° |
| 2026-05-03 20:19 | 44.20173 | 14.10898 | 38112 ft | 444 kts | 297° |
| 2026-05-03 20:19 | 44.22795 | 14.03099 | 38113 ft | 444 kts | 297° |
| 2026-05-03 20:20 | 44.24985 | 13.96564 | 38111 ft | 444 kts | 297° |
| 2026-05-03 20:20 | 44.27589 | 13.88761 | 38106 ft | 443 kts | 296° |
| 2026-05-03 20:21 | 44.30176 | 13.81004 | 38104 ft | 442 kts | 297° |
| 2026-05-03 20:21 | 44.32777 | 13.73214 | 38095 ft | 442 kts | 296° |
| 2026-05-03 20:22 | 44.35361 | 13.65406 | 38096 ft | 443 kts | 296° |
| 2026-05-03 20:22 | 44.37945 | 13.57603 | 38097 ft | 442 kts | 296° |
| 2026-05-03 20:23 | 44.40525 | 13.49785 | 38096 ft | 442 kts | 296° |
| 2026-05-03 20:23 | 44.42962 | 13.41952 | 38091 ft | 441 kts | 294° |
| 2026-05-03 20:24 | 44.45409 | 13.34074 | 38093 ft | 441 kts | 295° |
| 2026-05-03 20:24 | 44.47884 | 13.26205 | 38093 ft | 442 kts | 294° |
| 2026-05-03 20:25 | 44.50329 | 13.18288 | 38097 ft | 442 kts | 295° |
| 2026-05-03 20:25 | 44.52783 | 13.10369 | 38104 ft | 442 kts | 295° |
| 2026-05-03 20:26 | 44.55225 | 13.02468 | 38101 ft | 441 kts | 295° |
| 2026-05-03 20:26 | 44.57645 | 12.94557 | 38105 ft | 442 kts | 295° |
| 2026-05-03 20:27 | 44.60062 | 12.86634 | 38080 ft | 442 kts | 294° |
| 2026-05-03 20:27 | 44.62473 | 12.78711 | 38094 ft | 441 kts | 294° |
| 2026-05-03 20:28 | 44.64863 | 12.70845 | 38091 ft | 440 kts | 294° |
| 2026-05-03 20:28 | 44.67258 | 12.62923 | 38077 ft | 440 kts | 294° |
| 2026-05-03 20:29 | 44.69652 | 12.54995 | 38092 ft | 439 kts | 294° |
| 2026-05-03 20:29 | 44.72029 | 12.47080 | 38093 ft | 439 kts | 294° |
| 2026-05-03 20:30 | 44.74413 | 12.39151 | 38094 ft | 440 kts | 294° |
| 2026-05-03 20:30 | 44.76783 | 12.31223 | 38096 ft | 439 kts | 294° |
| 2026-05-03 20:31 | 44.79140 | 12.23343 | 38076 ft | 439 kts | 294° |
| 2026-05-03 20:31 | 44.81491 | 12.15417 | 38081 ft | 439 kts | 294° |
| 2026-05-03 20:32 | 44.83836 | 12.07474 | 38082 ft | 439 kts | 294° |
| 2026-05-03 20:32 | 44.86178 | 11.99525 | 38076 ft | 439 kts | 294° |
| 2026-05-03 20:33 | 44.88511 | 11.91596 | 38072 ft | 438 kts | 293° |
| 2026-05-03 20:33 | 44.90841 | 11.83653 | 38070 ft | 437 kts | 293° |
| 2026-05-03 20:34 | 44.93153 | 11.75780 | 38062 ft | 437 kts | 293° |
| 2026-05-03 20:34 | 44.95477 | 11.67789 | 38073 ft | 437 kts | 292° |
| 2026-05-03 20:35 | 44.97770 | 11.59897 | 38071 ft | 437 kts | 293° |
| 2026-05-03 20:35 | 45.00073 | 11.51938 | 38071 ft | 437 kts | 292° |
| 2026-05-03 20:36 | 45.02370 | 11.43968 | 38070 ft | 438 kts | 292° |
| 2026-05-03 20:36 | 45.04669 | 11.35981 | 38079 ft | 439 kts | 292° |
| 2026-05-03 20:37 | 45.06967 | 11.27963 | 38085 ft | 439 kts | 292° |
| 2026-05-03 20:37 | 45.09263 | 11.19942 | 38080 ft | 440 kts | 292° |
| 2026-05-03 20:38 | 45.11559 | 11.11901 | 38080 ft | 440 kts | 292° |
| 2026-05-03 20:38 | 45.13837 | 11.03856 | 38076 ft | 441 kts | 293° |
| 2026-05-03 20:39 | 45.16106 | 10.95852 | 38091 ft | 441 kts | 292° |
| 2026-05-03 20:39 | 45.18380 | 10.87781 | 38082 ft | 441 kts | 291° |
| 2026-05-03 20:40 | 45.20660 | 10.79701 | 38079 ft | 442 kts | 291° |
| 2026-05-03 20:40 | 45.22931 | 10.71601 | 38079 ft | 442 kts | 291° |
| 2026-05-03 20:41 | 45.25190 | 10.63483 | 38072 ft | 442 kts | 291° |
| 2026-05-03 20:41 | 45.27453 | 10.55369 | 38070 ft | 442 kts | 291° |
| 2026-05-03 20:42 | 45.29712 | 10.47263 | 38066 ft | 441 kts | 291° |
| 2026-05-03 20:42 | 45.31954 | 10.39138 | 38065 ft | 443 kts | 291° |
| 2026-05-03 20:43 | 45.34195 | 10.30984 | 38069 ft | 443 kts | 291° |
| 2026-05-03 20:43 | 45.36440 | 10.22795 | 38058 ft | 444 kts | 291° |
| 2026-05-03 20:44 | 45.38690 | 10.14600 | 38045 ft | 444 kts | 290° |
| 2026-05-03 20:44 | 45.40933 | 10.06401 | 38059 ft | 445 kts | 290° |
| 2026-05-03 20:45 | 45.43170 | 9.98185 | 38068 ft | 445 kts | 290° |
| 2026-05-03 20:45 | 45.45402 | 9.89952 | 38070 ft | 445 kts | 290° |
| 2026-05-03 20:46 | 45.47606 | 9.81763 | 38082 ft | 445 kts | 290° |
| 2026-05-03 20:46 | 45.49819 | 9.73520 | 38089 ft | 445 kts | 290° |
| 2026-05-03 20:47 | 45.52042 | 9.65292 | 38087 ft | 445 kts | 290° |
| 2026-05-03 20:47 | 45.54250 | 9.57054 | 38091 ft | 445 kts | 290° |
| 2026-05-03 20:48 | 45.56553 | 9.48859 | 38109 ft | 446 kts | 295° |
| 2026-05-03 20:48 | 45.59398 | 9.40988 | 38103 ft | 446 kts | 296° |
| 2026-05-03 20:49 | 45.62238 | 9.33113 | 38106 ft | 446 kts | 295° |
| 2026-05-03 20:49 | 45.65072 | 9.25207 | 38113 ft | 447 kts | 295° |
| 2026-05-03 20:50 | 45.67874 | 9.17351 | 38117 ft | 446 kts | 295° |
| 2026-05-03 20:50 | 45.70676 | 9.09440 | 38109 ft | 445 kts | 295° |
| 2026-05-03 20:51 | 45.73484 | 9.01539 | 38113 ft | 445 kts | 295° |
| 2026-05-03 20:51 | 45.76302 | 8.93575 | 38113 ft | 445 kts | 295° |
| 2026-05-03 20:52 | 45.79079 | 8.85698 | 38113 ft | 445 kts | 295° |
| 2026-05-03 20:52 | 45.81864 | 8.77771 | 38107 ft | 445 kts | 294° |
| 2026-05-03 20:53 | 45.84644 | 8.69827 | 38106 ft | 446 kts | 295° |
| 2026-05-03 20:53 | 45.87428 | 8.61876 | 38104 ft | 445 kts | 295° |
| 2026-05-03 20:54 | 45.90201 | 8.53905 | 38106 ft | 446 kts | 294° |
| 2026-05-03 20:54 | 45.94356 | 8.41918 | 38094 ft | 447 kts | 294° |
| 2026-05-03 20:55 | 45.97120 | 8.33920 | 38097 ft | 447 kts | 294° |
| 2026-05-03 20:55 | 45.99859 | 8.25961 | 38092 ft | 447 kts | 294° |
| 2026-05-03 20:56 | 46.02619 | 8.17965 | 38096 ft | 446 kts | 294° |
| 2026-05-03 20:56 | 46.05364 | 8.09938 | 38096 ft | 447 kts | 294° |
| 2026-05-03 20:57 | 46.08103 | 8.01903 | 38088 ft | 447 kts | 293° |
| 2026-05-03 20:57 | 46.10814 | 7.93828 | 38090 ft | 448 kts | 293° |
| 2026-05-03 20:58 | 46.13508 | 7.85708 | 38092 ft | 448 kts | 293° |
| 2026-05-03 20:58 | 46.16181 | 7.77653 | 38081 ft | 448 kts | 293° |
| 2026-05-03 20:59 | 46.18872 | 7.69533 | 38085 ft | 449 kts | 293° |
| 2026-05-03 20:59 | 46.21551 | 7.61405 | 38090 ft | 449 kts | 293° |
| 2026-05-03 21:00 | 46.23350 | 7.55948 | 38072 ft | 450 kts | 293° |
| 2026-05-03 21:00 | 46.26924 | 7.45065 | 38076 ft | 450 kts | 292° |
| 2026-05-03 21:01 | 46.29609 | 7.36865 | 38073 ft | 450 kts | 293° |
| 2026-05-03 21:01 | 46.32265 | 7.28725 | 38068 ft | 451 kts | 292° |
| 2026-05-03 21:02 | 46.34922 | 7.20553 | 38069 ft | 451 kts | 292° |
| 2026-05-03 21:02 | 46.37582 | 7.12341 | 38067 ft | 451 kts | 292° |
| 2026-05-03 21:03 | 46.40246 | 7.04099 | 38066 ft | 452 kts | 292° |
| 2026-05-03 21:03 | 46.42459 | 6.97233 | 38070 ft | 452 kts | 292° |
| 2026-05-03 21:04 | 46.45565 | 6.87557 | 38074 ft | 453 kts | 292° |
| 2026-05-03 21:04 | 46.47774 | 6.80668 | 38077 ft | 454 kts | 292° |
| 2026-05-03 21:05 | 46.50426 | 6.72349 | 38080 ft | 454 kts | 292° |
| 2026-05-03 21:05 | 46.53075 | 6.64018 | 38083 ft | 455 kts | 291° |
| 2026-05-03 21:06 | 46.55727 | 6.55668 | 38081 ft | 454 kts | 292° |
| 2026-05-03 21:06 | 46.58350 | 6.47322 | 38079 ft | 453 kts | 291° |
| 2026-05-03 21:07 | 46.60955 | 6.39038 | 38073 ft | 453 kts | 291° |
| 2026-05-03 21:07 | 46.63583 | 6.30698 | 38063 ft | 453 kts | 291° |
| 2026-05-03 21:08 | 46.66196 | 6.22371 | 38057 ft | 452 kts | 291° |
| 2026-05-03 21:08 | 46.68798 | 6.14042 | 38057 ft | 452 kts | 291° |
| 2026-05-03 21:09 | 46.71388 | 6.05691 | 38059 ft | 452 kts | 291° |
| 2026-05-03 21:09 | 46.73978 | 5.97329 | 38052 ft | 453 kts | 291° |
| 2026-05-03 21:10 | 46.76568 | 5.88943 | 38057 ft | 454 kts | 290° |
| 2026-05-03 21:10 | 46.79178 | 5.80525 | 38028 ft | 456 kts | 293° |
| 2026-05-03 21:11 | 46.82882 | 5.73015 | 38018 ft | 466 kts | 311° |
| 2026-05-03 21:11 | 46.88176 | 5.67390 | 38010 ft | 477 kts | 327° |
| 2026-05-03 21:12 | 46.94010 | 5.62741 | 38012 ft | 478 kts | 327° |
| 2026-05-03 21:12 | 46.99829 | 5.58059 | 38011 ft | 478 kts | 327° |
| 2026-05-03 21:13 | 47.05659 | 5.53347 | 38011 ft | 479 kts | 327° |
| 2026-05-03 21:13 | 47.11505 | 5.48615 | 38007 ft | 478 kts | 327° |
| 2026-05-03 21:14 | 47.17345 | 5.43877 | 37891 ft | 478 kts | 327° |
| 2026-05-03 21:14 | 47.20245 | 5.41523 | 37639 ft | 474 kts | 327° |
| 2026-05-03 21:14 | 47.23126 | 5.39184 | 37391 ft | 472 kts | 327° |
| 2026-05-03 21:15 | 47.26006 | 5.36844 | 37138 ft | 472 kts | 327° |
| 2026-05-03 21:15 | 47.28879 | 5.34495 | 36891 ft | 473 kts | 326° |
| 2026-05-03 21:15 | 47.31750 | 5.32149 | 36642 ft | 472 kts | 326° |
| 2026-05-03 21:15 | 47.34624 | 5.29798 | 36393 ft | 472 kts | 326° |
| 2026-05-03 21:16 | 47.37498 | 5.27443 | 36147 ft | 473 kts | 326° |
| 2026-05-03 21:16 | 47.40389 | 5.25077 | 35897 ft | 478 kts | 326° |
| 2026-05-03 21:16 | 47.43307 | 5.22687 | 35457 ft | 480 kts | 326° |
| 2026-05-03 21:16 | 47.46200 | 5.20304 | 34580 ft | 485 kts | 326° |
| 2026-05-03 21:17 | 47.49157 | 5.17873 | 33571 ft | 489 kts | 326° |
| 2026-05-03 21:17 | 47.51167 | 5.16223 | 33001 ft | 488 kts | 326° |
| 2026-05-03 21:17 | 47.55072 | 5.13019 | 32283 ft | 478 kts | 326° |
| 2026-05-03 21:17 | 47.57928 | 5.10599 | 31726 ft | 469 kts | 323° |
| 2026-05-03 21:18 | 47.60542 | 5.07812 | 31133 ft | 459 kts | 316° |
| 2026-05-03 21:18 | 47.62949 | 5.04763 | 30559 ft | 452 kts | 314° |
| 2026-05-03 21:18 | 47.65332 | 5.01768 | 29988 ft | 447 kts | 315° |
| 2026-05-03 21:18 | 47.67694 | 4.98813 | 29423 ft | 441 kts | 314° |
| 2026-05-03 21:19 | 47.70018 | 4.95882 | 28853 ft | 436 kts | 314° |
| 2026-05-03 21:19 | 47.72320 | 4.92995 | 28304 ft | 430 kts | 315° |
| 2026-05-03 21:19 | 47.74590 | 4.90145 | 27770 ft | 425 kts | 315° |
| 2026-05-03 21:19 | 47.76812 | 4.87344 | 27415 ft | 426 kts | 315° |
| 2026-05-03 21:20 | 47.79077 | 4.84473 | 27012 ft | 429 kts | 315° |
| 2026-05-03 21:20 | 47.81369 | 4.81561 | 26617 ft | 427 kts | 315° |
| 2026-05-03 21:20 | 47.83589 | 4.78743 | 26211 ft | 424 kts | 315° |
| 2026-05-03 21:20 | 47.85825 | 4.75901 | 25825 ft | 422 kts | 315° |
| 2026-05-03 21:21 | 47.88053 | 4.73071 | 25418 ft | 419 kts | 315° |
| 2026-05-03 21:21 | 47.90270 | 4.70249 | 25028 ft | 418 kts | 315° |
| 2026-05-03 21:21 | 47.92474 | 4.67431 | 24632 ft | 417 kts | 315° |
| 2026-05-03 21:21 | 47.94666 | 4.64625 | 24241 ft | 414 kts | 315° |
| 2026-05-03 21:22 | 47.96843 | 4.61831 | 23853 ft | 412 kts | 315° |
| 2026-05-03 21:22 | 47.99017 | 4.59048 | 23469 ft | 411 kts | 315° |
| 2026-05-03 21:22 | 48.01176 | 4.56284 | 23084 ft | 408 kts | 315° |
| 2026-05-03 21:22 | 48.03325 | 4.53537 | 22708 ft | 406 kts | 315° |
| 2026-05-03 21:23 | 48.05460 | 4.50795 | 22325 ft | 404 kts | 315° |
| 2026-05-03 21:23 | 48.07585 | 4.48052 | 21936 ft | 401 kts | 315° |
| 2026-05-03 21:23 | 48.09695 | 4.45329 | 21561 ft | 399 kts | 315° |
| 2026-05-03 21:23 | 48.11791 | 4.42621 | 21183 ft | 397 kts | 315° |
| 2026-05-03 21:24 | 48.13877 | 4.39927 | 20817 ft | 395 kts | 315° |
| 2026-05-03 21:24 | 48.15954 | 4.37250 | 20435 ft | 393 kts | 314° |
| 2026-05-03 21:24 | 48.18018 | 4.34571 | 20077 ft | 391 kts | 314° |
| 2026-05-03 21:24 | 48.20068 | 4.31908 | 19713 ft | 389 kts | 314° |
| 2026-05-03 21:25 | 48.22088 | 4.29285 | 19351 ft | 388 kts | 314° |
| 2026-05-03 21:25 | 48.24116 | 4.26658 | 18991 ft | 385 kts | 314° |
| 2026-05-03 21:25 | 48.26099 | 4.23981 | 18628 ft | 381 kts | 310° |
| 2026-05-03 21:25 | 48.27827 | 4.21011 | 18264 ft | 375 kts | 304° |
| 2026-05-03 21:26 | 48.29470 | 4.17972 | 17921 ft | 374 kts | 304° |
| 2026-05-03 21:26 | 48.31125 | 4.14959 | 17559 ft | 372 kts | 304° |
| 2026-05-03 21:26 | 48.32763 | 4.11987 | 17284 ft | 370 kts | 305° |
| 2026-05-03 21:26 | 48.34148 | 4.08776 | 17037 ft | 361 kts | 288° |
| 2026-05-03 21:27 | 48.35036 | 4.05276 | 16789 ft | 361 kts | 292° |
| 2026-05-03 21:27 | 48.36482 | 4.02140 | 16545 ft | 367 kts | 307° |
| 2026-05-03 21:27 | 48.38230 | 3.99343 | 16297 ft | 368 kts | 310° |
| 2026-05-03 21:27 | 48.40020 | 3.96607 | 16050 ft | 366 kts | 310° |
| 2026-05-03 21:28 | 48.41773 | 3.93834 | 15795 ft | 364 kts | 309° |
| 2026-05-03 21:28 | 48.43457 | 3.91059 | 15542 ft | 362 kts | 308° |
| 2026-05-03 21:28 | 48.45151 | 3.88203 | 15293 ft | 360 kts | 308° |
| 2026-05-03 21:28 | 48.46782 | 3.85420 | 15053 ft | 359 kts | 307° |
| 2026-05-03 21:29 | 48.48436 | 3.82608 | 14677 ft | 358 kts | 308° |
| 2026-05-03 21:29 | 48.50082 | 3.79791 | 14163 ft | 355 kts | 307° |
| 2026-05-03 21:29 | 48.51684 | 3.77016 | 13662 ft | 349 kts | 308° |
| 2026-05-03 21:29 | 48.53272 | 3.74271 | 13236 ft | 342 kts | 307° |
| 2026-05-03 21:30 | 48.54658 | 3.71462 | 13075 ft | 325 kts | 299° |
| 2026-05-03 21:30 | 48.55857 | 3.68628 | 12786 ft | 317 kts | 300° |
| 2026-05-03 21:30 | 48.57039 | 3.65856 | 12397 ft | 312 kts | 300° |
| 2026-05-03 21:30 | 48.58217 | 3.63126 | 12013 ft | 308 kts | 300° |
| 2026-05-03 21:31 | 48.59372 | 3.60449 | 11591 ft | 299 kts | 300° |
| 2026-05-03 21:31 | 48.60505 | 3.57855 | 11258 ft | 293 kts | 305° |
| 2026-05-03 21:31 | 48.61956 | 3.55664 | 10893 ft | 296 kts | 320° |
| 2026-05-03 21:31 | 48.63719 | 3.54060 | 10529 ft | 296 kts | 329° |
| 2026-05-03 21:32 | 48.65493 | 3.52591 | 10299 ft | 293 kts | 328° |
| 2026-05-03 21:32 | 48.67274 | 3.51054 | 10166 ft | 293 kts | 327° |
| 2026-05-03 21:32 | 48.69032 | 3.49487 | 10030 ft | 296 kts | 326° |
| 2026-05-03 21:32 | 48.70805 | 3.47924 | 9787 ft | 294 kts | 327° |
| 2026-05-03 21:33 | 48.72581 | 3.46383 | 9497 ft | 294 kts | 327° |
| 2026-05-03 21:33 | 48.74355 | 3.44846 | 9229 ft | 291 kts | 327° |
| 2026-05-03 21:33 | 48.76067 | 3.43345 | 9131 ft | 280 kts | 326° |
| 2026-05-03 21:33 | 48.77727 | 3.41888 | 8956 ft | 271 kts | 324° |
| 2026-05-03 21:34 | 48.79357 | 3.40442 | 8655 ft | 271 kts | 326° |
| 2026-05-03 21:34 | 48.80962 | 3.39050 | 8542 ft | 259 kts | 324° |
| 2026-05-03 21:34 | 48.82386 | 3.37490 | 8414 ft | 248 kts | 317° |
| 2026-05-03 21:34 | 48.83735 | 3.35848 | 8083 ft | 248 kts | 317° |
| 2026-05-03 21:35 | 48.85093 | 3.34198 | 7738 ft | 250 kts | 317° |
| 2026-05-03 21:35 | 48.86446 | 3.32545 | 7389 ft | 249 kts | 318° |
| 2026-05-03 21:35 | 48.87810 | 3.30882 | 7042 ft | 251 kts | 317° |
| 2026-05-03 21:35 | 48.89175 | 3.29221 | 6697 ft | 253 kts | 317° |
| 2026-05-03 21:36 | 48.90545 | 3.27571 | 6360 ft | 248 kts | 317° |
| 2026-05-03 21:36 | 48.91669 | 3.25721 | 5997 ft | 238 kts | 302° |
| 2026-05-03 21:36 | 48.92652 | 3.23708 | 5646 ft | 236 kts | 302° |
| 2026-05-03 21:36 | 48.93637 | 3.21698 | 5300 ft | 237 kts | 302° |
| 2026-05-03 21:37 | 48.94613 | 3.19678 | 4952 ft | 237 kts | 302° |
| 2026-05-03 21:37 | 48.95595 | 3.17657 | 4617 ft | 236 kts | 302° |
| 2026-05-03 21:37 | 48.96560 | 3.15671 | 4347 ft | 230 kts | 302° |
| 2026-05-03 21:37 | 48.97490 | 3.13711 | 4083 ft | 227 kts | 302° |
| 2026-05-03 21:38 | 48.98410 | 3.11780 | 3988 ft | 224 kts | 301° |
| 2026-05-03 21:38 | 48.99301 | 3.09901 | 3987 ft | 214 kts | 304° |
| 2026-05-03 21:38 | 49.00167 | 3.08088 | 4006 ft | 207 kts | 302° |
| 2026-05-03 21:38 | 49.00938 | 3.06359 | 3990 ft | 189 kts | 292° |
| 2026-05-03 21:39 | 49.01306 | 3.04508 | 4003 ft | 180 kts | 275° |
| 2026-05-03 21:39 | 49.01513 | 3.02644 | 4004 ft | 180 kts | 271° |
| 2026-05-03 21:39 | 49.01587 | 3.00758 | 4000 ft | 178 kts | 266° |
| 2026-05-03 21:39 | 49.01546 | 2.98880 | 3986 ft | 177 kts | 263° |
| 2026-05-03 21:40 | 49.01434 | 2.97019 | 4002 ft | 177 kts | 262° |
| 2026-05-03 21:40 | 49.01342 | 2.95143 | 3999 ft | 177 kts | 262° |
| 2026-05-03 21:40 | 49.01245 | 2.93275 | 4001 ft | 177 kts | 262° |
| 2026-05-03 21:40 | 49.01149 | 2.91395 | 3999 ft | 178 kts | 262° |
| 2026-05-03 21:41 | 49.01047 | 2.89522 | 3992 ft | 175 kts | 262° |
| 2026-05-03 21:41 | 49.00946 | 2.87731 | 3870 ft | 166 kts | 261° |
| 2026-05-03 21:41 | 49.00851 | 2.86003 | 3631 ft | 163 kts | 261° |
| 2026-05-03 21:41 | 49.00765 | 2.84310 | 3412 ft | 164 kts | 264° |
| 2026-05-03 21:42 | 49.00674 | 2.82593 | 3194 ft | 159 kts | 260° |
| 2026-05-03 21:42 | 49.00597 | 2.80975 | 2986 ft | 148 kts | 262° |
| 2026-05-03 21:42 | 49.00511 | 2.79457 | 2789 ft | 143 kts | 260° |
| 2026-05-03 21:42 | 49.00433 | 2.77949 | 2602 ft | 144 kts | 259° |
| 2026-05-03 21:43 | 49.00350 | 2.76437 | 2409 ft | 144 kts | 259° |
| 2026-05-03 21:43 | 49.00267 | 2.74925 | 2217 ft | 140 kts | 259° |
| 2026-05-03 21:43 | 49.00200 | 2.73454 | 2039 ft | 139 kts | 262° |
| 2026-05-03 21:43 | 49.00122 | 2.71992 | 1848 ft | 139 kts | 259° |
| 2026-05-03 21:44 | 49.00033 | 2.70538 | 1667 ft | 138 kts | 262° |
| 2026-05-03 21:44 | 48.99964 | 2.69081 | 1482 ft | 137 kts | 262° |
| 2026-05-03 21:44 | 48.99880 | 2.67630 | 1302 ft | 137 kts | 260° |
| 2026-05-03 21:44 | 48.99782 | 2.66191 | 1120 ft | 137 kts | 261° |
| 2026-05-03 21:45 | 48.99718 | 2.64747 | 957 ft | 136 kts | 262° |
| 2026-05-03 21:45 | 48.99649 | 2.63308 | 789 ft | 136 kts | 262° |
| 2026-05-03 21:45 | 48.99578 | 2.61868 | 584 ft | 136 kts | 263° |
| 2026-05-03 21:45 | 48.99499 | 2.60437 | 408 ft | 136 kts | 262° |
| 2026-05-03 21:46 | 48.99421 | 2.59044 | 371 ft | 123 kts | 263° |
| 2026-05-03 21:46 | 48.99356 | 2.57928 | 357 ft | 81 kts | 265° |
| 2026-05-03 21:46 | 48.99333 | 2.57375 | 362 ft | 37 kts | 266° |
| 2026-05-03 21:46 | 48.99316 | 2.57011 | 357 ft | 32 kts | 268° |
| 2026-05-03 21:47 | 48.99359 | 2.56728 | 365 ft | 19 kts | 308° |
| 2026-05-03 21:47 | 48.99399 | 2.56675 | 364 ft | 1 kts | 335° |
| 2026-05-03 21:47 | 48.99404 | 2.56671 | 368 ft | 0 kts | 335° |
| 2026-05-03 21:47 | 48.99414 | 2.56665 | 367 ft | 6 kts | 339° |
| 2026-05-03 21:48 | 48.99482 | 2.56640 | 359 ft | 13 kts | 352° |
| 2026-05-03 21:48 | 48.99593 | 2.56621 | 367 ft | 18 kts | 354° |
| 2026-05-03 21:48 | 48.99725 | 2.56603 | 366 ft | 19 kts | 355° |
| 2026-05-03 21:48 | 48.99809 | 2.56540 | 366 ft | 14 kts | 299° |
| 2026-05-03 21:49 | 48.99816 | 2.56408 | 364 ft | 0 kts | 269° |
| 2026-05-03 21:49 | 48.99816 | 2.56390 | 359 ft | 2 kts | 268° |
| 2026-05-03 21:49 | 48.99815 | 2.56355 | 359 ft | 0 kts | 268° |
| 2026-05-03 21:49 | 48.99814 | 2.56342 | 359 ft | 3 kts | 268° |
| 2026-05-03 21:50 | 48.99812 | 2.56279 | 363 ft | 9 kts | 267° |
| 2026-05-03 21:50 | 48.99808 | 2.56159 | 359 ft | 14 kts | 266° |
| 2026-05-03 21:50 | 48.99800 | 2.55999 | 359 ft | 17 kts | 264° |
| 2026-05-03 21:50 | 48.99776 | 2.55828 | 361 ft | 15 kts | 252° |
| 2026-05-03 21:51 | 48.99761 | 2.55737 | 361 ft | 10 kts | 261° |
| 2026-05-03 21:51 | 48.99750 | 2.55605 | 359 ft | 14 kts | 265° |
| 2026-05-03 21:51 | 48.99783 | 2.55474 | 360 ft | 14 kts | 328° |
| 2026-05-03 21:51 | 48.99874 | 2.55468 | 364 ft | 15 kts | 41° |
| 2026-05-03 21:52 | 48.99976 | 2.55529 | 365 ft | 18 kts | 356° |
| 2026-05-03 21:52 | 49.00103 | 2.55480 | 366 ft | 21 kts | 344° |
| 2026-05-03 21:52 | 49.00250 | 2.55417 | 359 ft | 23 kts | 344° |
| 2026-05-03 21:52 | 49.00410 | 2.55348 | 359 ft | 25 kts | 344° |
| 2026-05-03 21:53 | 49.00582 | 2.55273 | 362 ft | 27 kts | 344° |
| 2026-05-03 21:53 | 49.00704 | 2.55221 | 362 ft | 28 kts | 344° |
| 2026-05-03 21:53 | 49.00893 | 2.55135 | 359 ft | 29 kts | 343° |
| 2026-05-03 21:53 | 49.01089 | 2.55049 | 362 ft | 30 kts | 347° |
| 2026-05-03 21:54 | 49.01229 | 2.54934 | 361 ft | 13 kts | 259° |
| 2026-05-03 21:54 | 49.01229 | 2.54785 | 361 ft | 16 kts | 280° |
| 2026-05-03 21:54 | 49.01266 | 2.54702 | 359 ft | 6 kts | 4° |
| 2026-05-03 21:54 | 49.01315 | 2.54708 | 359 ft | 5 kts | 339° |
| 2026-05-03 21:55 | 49.01343 | 2.54654 | 360 ft | 9 kts | 292° |
| 2026-05-03 21:55 | 49.01347 | 2.54637 | 359 ft | 0 kts | 291° |
| 2026-05-03 21:55 | 49.01352 | 2.54620 | 362 ft | 0 kts | 291° |
| 2026-05-03 21:55 | 49.01353 | 2.54614 | 359 ft | 0 kts | 291° |